Flight Track Log - Related Links

Times and Time Zones

All times are in EDT time to prevent confusion due to time zone crossing. See the UCA3597 flight status page for this flight to view local times or setup timezone preferences in your user account.

Time Position Orientation Groundspeed Altitude Reporting Facility
EDT Latitude Longitude Course Direction KTS MPH feet Rate Location/Type
Tue 07:17:12 PM 42.2094 -76.0622 210° Southwest 155 178 5,200  Level New York Center
Tue 07:18:12 PM 42.1642 -76.0978 210° Southwest 169 194 6,900 1,750 Climbing New York Center
Tue 07:19:12 PM 42.1142 -76.1411 213° Southwest 195 224 8,700 1,900 Climbing New York Center
Tue 07:20:12 PM 42.0667 -76.1792 211° Southwest 207 238 10,700 2,050 Climbing New York Center
Tue 07:21:12 PM 42.0103 -76.2278 213° Southwest 220 253 12,800 1,950 Climbing New York Center
Tue 07:22:12 PM 41.9692 -76.2606 211° Southwest 210 242 14,600 1,600 Climbing New York Center
Tue 07:23:12 PM 41.9153 -76.3033 211° Southwest 210 242 16,000 700 Climbing New York Center
Tue 07:24:12 PM 41.8589 -76.3517 213° Southwest 230 265 16,000  Level New York Center
Tue 07:25:12 PM 41.8047 -76.3972 212° Southwest 252 290 16,000  Level New York Center
Tue 07:26:12 PM 41.7394 -76.4528 212° Southwest 277 319 16,000  Level New York Center
Tue 07:27:12 PM 41.6669 -76.4883 200° South 283 326 16,000  Level New York Center
Tue 07:28:12 PM 41.5839 -76.5256 199° South 288 331 16,000  Level New York Center
Tue 07:29:12 PM 41.5072 -76.5606 199° South 293 337 16,000  Level New York Center
Tue 07:30:12 PM 41.4328 -76.5958 200° South 293 337 16,000  Level New York Center
Tue 07:31:12 PM 41.3644 -76.6258 198° South 293 337 16,000  Level New York Center
Tue 07:32:12 PM 41.2814 -76.6628 198° South 293 337 16,000  Level New York Center
Tue 07:33:12 PM 41.2028 -76.6972 198° South 293 337 16,000  Level New York Center
Tue 07:34:12 PM 41.1261 -76.7264 196° South 293 337 16,000  Level New York Center
Tue 07:35:12 PM 41.0497 -76.7556 196° South 293 337 16,000  Level New York Center
Tue 07:36:12 PM 40.9733 -76.7817 194° South 293 337 16,000  Level New York Center
Tue 07:37:12 PM 40.8947 -76.8131 197° South 293 337 16,000  Level New York Center
Tue 07:38:12 PM 40.8267 -76.8400 197° South 293 337 16,000  Level New York Center
Tue 07:39:12 PM 40.7417 -76.8708 195° South 288 331 16,000  Level New York Center
Tue 07:40:12 PM 40.6714 -76.8975 196° South 288 331 16,000  Level New York Center
Tue 07:41:12 PM 40.5886 -76.9283 196° South 288 331 16,000  Level New York Center
Tue 07:42:12 PM 40.5164 -76.9547 196° South 293 337 16,000 -150 Level New York Center
Tue 07:43:12 PM 40.4311 -76.9881 197° South 293 337 15,700 -600 Descending New York Center
Tue 07:44:12 PM 40.3611 -77.0144 196° South 293 337 14,800 -981 Descending New York Center
Tue 07:45:51 PM 40.2167 -77.0667 195° South 301 346 13,100 -1,019 Descending Potomac TRACON
Tue 07:46:51 PM 40.1333 -77.0833 189° South 295 339 12,100 -1,000 Descending Potomac TRACON
Tue 07:47:51 PM 40.0667 -77.1167 201° Southwest 290 334 11,100 -952 Descending Potomac TRACON
Tue 07:48:57 PM 39.9833 -77.1333 189° South 294 338 10,100 -1,000 Descending Potomac TRACON
Tue 07:49:51 PM 39.9000 -77.1667 197° South 297 342 9,100 -684 Descending Potomac TRACON
Tue 07:50:51 PM 39.8333 -77.1833 191° South 288 331 8,800 -545 Descending Potomac TRACON
Tue 07:51:52 PM 39.7500 -77.2000 189° South 288 331 8,000 -381 Descending Potomac TRACON
Tue 07:52:57 PM 39.6667 -77.2500 205° Southwest 268 308 8,000  Level Potomac TRACON
Tue 07:53:52 PM 39.6333 -77.3167 237° Southwest 264 304 8,000 -522 Level Potomac TRACON
Tue 07:54:52 PM 39.5667 -77.3500 201° Southwest 281 323 7,000 -1,008 Descending Potomac TRACON
Tue 07:55:57 PM 39.4833 -77.3500 180° South 266 306 5,900 -1,000 Descending Potomac TRACON
Tue 07:56:58 PM 39.4000 -77.3667 189° South 263 303 4,900 -942 Descending Potomac TRACON
Tue 07:57:58 PM 39.3333 -77.3667 180° South 260 299 4,000 -450 Descending Potomac TRACON
Tue 07:58:58 PM 39.2667 -77.3667 180° South 256 295 4,000  Level Potomac TRACON
Tue 07:59:58 PM 39.2000 -77.3500 169° South 255 293 4,000  Level Potomac TRACON
Tue 08:00:58 PM 39.1167 -77.3500 180° South 254 292 4,000  Level Potomac TRACON
Tue 08:01:58 PM 39.0500 -77.3500 180° South 255 293 4,000  Level Potomac TRACON
Tue 08:02:58 PM 38.9833 -77.3500 180° South 246 283 4,000  Level Potomac TRACON
Tue 08:03:58 PM 38.9167 -77.3500 180° South 237 273 4,000  Level Potomac TRACON
Tue 08:04:58 PM 38.8500 -77.3667 191° South 231 266 4,000 -500 Level Potomac TRACON
Tue 08:05:58 PM 38.8000 -77.3667 180° South 237 273 3,000 -950 Descending Potomac TRACON
Tue 08:06:58 PM 38.8000 -77.4167 270° West 222 255 2,100 -600 Descending Potomac TRACON
Tue 08:07:58 PM 38.8500 -77.4333 345° North 185 213 1,800 -500 Descending Potomac TRACON
Tue 08:08:58 PM 38.8833 -77.4333 360° North 125 144 1,100 -632 Descending Potomac TRACON
Tue 08:09:52 PM 38.9167 -77.4333 360° North 98 113 600 -556 Descending Potomac TRACON
Tue 08:11:00 PM 38.9333 -77.4500 349° North  Level FlightAware Approximate
Tue 08:18:00 PM 38.9474 -77.4599 349° North  Level Estimated

Login

Don't have an account? Register now (free) for customized features, flight alerts, and more!